Time;durP1;ratioP1;P1;durP2;ratioP2;P2;SDS_P1;SDS_P2;PMS_P1;PMS_P2;Temp;Humidity;BMP_temperature;BMP_pressure;BME280_temperature;BME280_humidity;BME280_pressure;Samples;Min_cycle;Max_cycle;Signal;HPM_P1;HPM_P2
2022/03/07 00:02:27;;;;;;;19.98;17.95;;;21.10;62.60;;;;;;6048994;28;93385;-68
2022/03/07 00:05:31;;;;;;;19.63;17.63;;;21.00;62.60;;;;;;6045927;28;93068;-68
2022/03/07 00:08:33;;;;;;;19.40;17.40;;;21.10;62.60;;;;;;6054270;28;92729;-68
2022/03/07 00:11:36;;;;;;;20.13;18.08;;;21.00;62.60;;;;;;6053281;28;93756;-68
2022/03/07 00:14:38;;;;;;;19.13;17.30;;;21.00;62.50;;;;;;6046414;28;93364;-68
2022/03/07 00:17:40;;;;;;;19.75;17.75;;;21.00;63.40;;;;;;6046972;28;94106;-68
2022/03/07 00:20:44;;;;;;;18.92;17.00;;;21.00;62.50;;;;;;6059260;28;94061;-68
2022/03/07 00:23:46;;;;;;;19.58;17.58;;;21.00;62.50;;;;;;6034988;28;94094;-68
2022/03/07 00:26:48;;;;;;;19.35;17.38;;;21.00;62.60;;;;;;6055876;28;95868;-68
2022/03/07 00:29:50;;;;;;;19.40;17.40;;;21.00;62.50;;;;;;6048762;28;94178;-69
2022/03/07 00:32:52;;;;;;;18.95;17.05;;;21.00;62.60;;;;;;6044765;28;93448;-69
2022/03/07 00:35:56;;;;;;;19.70;17.60;;;21.00;62.50;;;;;;6044166;28;94146;-68
2022/03/07 00:38:58;;;;;;;19.05;17.05;;;21.00;62.50;;;;;;6057385;28;94144;-69
2022/03/07 00:42:00;;;;;;;19.00;17.10;;;21.00;62.50;;;;;;6059405;28;95217;-68
2022/03/07 00:45:02;;;;;;;18.35;16.55;;;21.00;62.60;;;;;;6048867;28;94428;-68
2022/03/07 00:48:05;;;;;;;18.65;16.75;;;21.00;62.60;;;;;;6043568;28;94093;-68
2022/03/07 00:51:08;;;;;;;19.45;17.35;;;21.00;62.60;;;;;;6055219;28;94240;-68
2022/03/07 00:54:10;;;;;;;18.73;16.83;;;21.00;62.60;;;;;;6047328;28;93891;-68
2022/03/07 00:57:15;;;;;;;18.92;17.02;;;20.90;62.50;;;;;;6061307;28;93928;-68
2022/03/07 01:00:17;;;;;;;17.83;16.05;;;21.00;62.60;;;;;;6052907;28;94117;-68
2022/03/07 01:03:20;;;;;;;18.63;16.73;;;21.00;62.60;;;;;;6060706;28;93546;-68
2022/03/07 01:06:23;;;;;;;18.40;16.50;;;20.90;62.50;;;;;;6049900;28;94028;-68
2022/03/07 01:09:26;;;;;;;18.30;16.42;;;20.90;62.60;;;;;;6050640;28;94212;-68
2022/03/07 01:12:28;;;;;;;18.40;16.50;;;20.90;62.50;;;;;;6056923;28;95109;-68
2022/03/07 01:15:30;;;;;;;17.65;15.93;;;20.90;62.60;;;;;;6059543;28;94166;-68
2022/03/07 01:18:32;;;;;;;17.58;15.77;;;20.90;62.60;;;;;;6062065;28;93123;-68
2022/03/07 01:21:35;;;;;;;18.33;16.50;;;20.90;62.60;;;;;;6056735;28;93442;-68
2022/03/07 01:24:37;;;;;;;17.88;16.02;;;20.90;62.50;;;;;;6041235;28;94069;-68
2022/03/07 01:27:40;;;;;;;16.88;15.18;;;20.90;62.50;;;;;;6056136;28;94171;-68
2022/03/07 01:30:42;;;;;;;17.02;15.25;;;20.90;62.50;;;;;;6056725;28;94247;-68
2022/03/07 01:33:44;;;;;;;17.27;15.57;;;20.90;62.60;;;;;;6038545;28;93438;-68
2022/03/07 01:36:48;;;;;;;16.80;15.10;;;20.80;62.40;;;;;;6045159;28;94046;-68
2022/03/07 01:39:50;;;;;;;16.52;14.90;;;20.80;62.50;;;;;;6049973;28;92851;-69
2022/03/07 01:42:52;;;;;;;16.63;14.82;;;20.80;62.50;;;;;;6050959;28;95358;-68
2022/03/07 01:45:55;;;;;;;16.58;14.95;;;20.80;62.60;;;;;;6050930;28;94505;-68
2022/03/07 01:52:18;;;;;;;16.67;14.98;;;20.80;62.60;;;;;;6057208;28;92407;-68
2022/03/07 01:55:21;;;;;;;16.38;14.70;;;20.80;62.50;;;;;;6048150;28;94056;-68
2022/03/07 01:58:23;;;;;;;16.42;14.73;;;20.80;62.50;;;;;;6040804;28;92992;-68
2022/03/07 02:01:25;;;;;;;15.05;13.55;;;20.80;62.50;;;;;;6049199;28;94363;-68
2022/03/07 02:04:28;;;;;;;16.15;14.48;;;20.80;62.40;;;;;;6054562;28;91938;-68
2022/03/07 02:07:31;;;;;;;15.15;13.65;;;20.80;62.50;;;;;;6050794;28;92597;-68
2022/03/07 02:10:33;;;;;;;15.32;13.77;;;20.80;62.40;;;;;;6035542;28;94132;-68
2022/03/07 02:13:35;;;;;;;14.95;13.45;;;20.80;62.50;;;;;;6048438;28;95101;-68
2022/03/07 02:16:38;;;;;;;14.55;13.10;;;20.80;62.50;;;;;;6038789;28;94137;-68
2022/03/07 02:19:40;;;;;;;15.07;13.57;;;20.80;62.50;;;;;;6063602;28;94411;-68
2022/03/07 02:22:44;;;;;;;14.35;12.95;;;20.80;62.50;;;;;;6060379;28;94187;-68
2022/03/07 02:25:47;;;;;;;15.05;13.55;;;20.80;62.50;;;;;;6049273;28;94064;-68
2022/03/07 02:28:49;;;;;;;14.85;13.40;;;20.80;62.50;;;;;;6058445;28;94316;-68
2022/03/07 02:31:52;;;;;;;15.07;13.55;;;20.80;62.60;;;;;;6043824;28;94105;-68
2022/03/07 02:34:54;;;;;;;14.13;12.73;;;20.80;62.60;;;;;;6043854;28;93439;-68
2022/03/07 02:37:58;;;;;;;14.27;12.88;;;20.70;62.50;;;;;;6045229;28;93997;-68
2022/03/07 02:41:00;;;;;;;14.48;13.07;;;20.70;62.60;;;;;;6035932;28;92115;-68
2022/03/07 02:44:02;;;;;;;14.60;13.13;;;20.70;62.60;;;;;;6057577;28;93116;-68
2022/03/07 02:47:04;;;;;;;13.75;12.45;;;20.70;62.60;;;;;;6060205;28;93358;-68
2022/03/07 02:50:07;;;;;;;13.88;12.48;;;20.70;62.60;;;;;;6047202;28;94452;-68
2022/03/07 02:53:11;;;;;;;13.52;12.23;;;20.80;62.60;;;;;;6057602;28;94139;-68
2022/03/07 02:56:13;;;;;;;13.13;11.82;;;20.70;62.50;;;;;;6047563;28;94220;-68
2022/03/07 02:59:15;;;;;;;13.38;12.05;;;20.70;62.50;;;;;;6056519;28;94200;-68
2022/03/07 03:02:18;;;;;;;13.27;11.95;;;20.70;62.60;;;;;;6049549;28;94142;-68
2022/03/07 03:05:21;;;;;;;12.48;11.27;;;20.70;62.50;;;;;;6050001;28;93733;-68
2022/03/07 03:08:24;;;;;;;13.88;12.48;;;20.70;62.50;;;;;;6056981;28;93932;-68
2022/03/07 03:11:28;;;;;;;12.48;11.27;;;20.70;62.50;;;;;;6042795;28;94515;-68
2022/03/07 03:14:30;;;;;;;13.32;12.02;;;20.70;62.40;;;;;;6042990;28;95461;-68
2022/03/07 03:17:32;;;;;;;12.80;11.55;;;20.70;62.40;;;;;;6048868;28;94198;-68
2022/03/07 03:20:34;;;;;;;12.23;11.02;;;20.70;62.50;;;;;;6050393;28;93936;-69
2022/03/07 03:23:38;;;;;;;12.48;11.25;;;20.70;62.50;;;;;;6053344;28;93453;-68
2022/03/07 03:26:40;;;;;;;11.93;10.73;;;20.70;62.50;;;;;;6058864;28;94288;-68
2022/03/07 03:29:42;;;;;;;12.38;11.18;;;20.70;62.50;;;;;;6074891;28;94905;-68
2022/03/07 03:32:45;;;;;;;12.20;10.95;;;20.70;62.50;;;;;;6068155;28;94179;-69
2022/03/07 03:35:47;;;;;;;11.70;10.50;;;20.70;62.50;;;;;;6064902;28;91510;-68
2022/03/07 03:38:50;;;;;;;12.10;10.90;;;20.70;62.60;;;;;;6070243;28;94737;-68
2022/03/07 03:41:52;;;;;;;11.35;10.25;;;20.70;62.50;;;;;;6046236;28;94136;-68
2022/03/07 03:44:55;;;;;;;11.40;10.30;;;20.60;62.40;;;;;;6053628;28;95090;-68
2022/03/07 03:47:57;;;;;;;11.65;10.45;;;20.70;62.40;;;;;;6041741;28;94513;-68
2022/03/07 03:50:59;;;;;;;11.80;10.70;;;20.60;62.40;;;;;;6038084;28;94344;-68
2022/03/07 03:54:02;;;;;;;11.40;10.30;;;20.70;62.40;;;;;;6034971;28;94146;-68
2022/03/07 03:57:05;;;;;;;11.20;10.10;;;20.70;62.50;;;;;;6047514;28;94173;-68
2022/03/07 04:00:10;;;;;;;11.45;10.35;;;20.60;62.40;;;;;;6042346;28;92953;-68
2022/03/07 04:03:12;;;;;;;10.52;9.52;;;20.70;62.40;;;;;;6060101;28;94181;-68
2022/03/07 04:06:14;;;;;;;10.75;9.70;;;20.60;62.40;;;;;;6047833;28;93899;-68
2022/03/07 04:09:36;;;;;;;10.73;9.73;;;20.60;62.40;;;;;;6044619;28;94159;-69
2022/03/07 04:12:38;;;;;;;10.85;9.85;;;20.60;62.40;;;;;;6052646;28;94197;-68
2022/03/07 04:15:59;;;;;;;11.18;10.07;;;20.60;62.30;;;;;;6055089;28;95119;-68
2022/03/07 04:19:01;;;;;;;10.52;9.50;;;20.60;62.40;;;;;;6058306;28;94196;-68
2022/03/07 04:22:03;;;;;;;10.25;9.27;;;20.60;62.40;;;;;;6053270;28;94839;-68
2022/03/07 04:25:08;;;;;;;10.50;9.50;;;20.60;62.40;;;;;;6052713;28;94217;-68
2022/03/07 04:28:11;;;;;;;10.40;9.40;;;20.60;62.30;;;;;;6054041;28;93897;-68
2022/03/07 04:31:13;;;;;;;11.00;10.00;;;20.60;62.30;;;;;;6064978;28;94075;-68
2022/03/07 04:34:15;;;;;;;9.60;8.70;;;20.60;62.30;;;;;;6063407;28;94201;-68
2022/03/07 04:37:17;;;;;;;10.38;9.38;;;20.60;62.20;;;;;;6074732;28;93856;-68
2022/03/07 04:40:21;;;;;;;9.85;8.85;;;20.60;62.20;;;;;;6060864;28;94825;-68
2022/03/07 04:43:23;;;;;;;10.05;9.00;;;20.60;62.20;;;;;;6043904;28;94013;-68
2022/03/07 04:46:25;;;;;;;9.38;8.48;;;20.60;62.20;;;;;;6042348;28;95070;-68
2022/03/07 04:49:27;;;;;;;9.30;8.40;;;20.70;62.30;;;;;;6043759;28;94021;-68
2022/03/07 04:52:29;;;;;;;9.32;8.43;;;20.60;62.20;;;;;;6043697;28;94405;-68
2022/03/07 04:55:33;;;;;;;9.50;8.60;;;20.70;62.10;;;;;;6053595;28;94464;-68
2022/03/07 04:58:36;;;;;;;9.30;8.43;;;20.60;62.20;;;;;;6055248;28;94001;-68
2022/03/07 05:01:38;;;;;;;9.15;8.25;;;20.60;62.00;;;;;;6056079;28;93066;-68
2022/03/07 05:04:40;;;;;;;8.93;8.05;;;20.70;61.90;;;;;;6063018;28;94167;-68
2022/03/07 05:07:42;;;;;;;8.88;8.07;;;20.70;61.90;;;;;;6060357;28;93728;-68
2022/03/07 05:10:46;;;;;;;9.35;8.45;;;20.70;61.90;;;;;;6059045;28;94209;-68
2022/03/07 05:13:48;;;;;;;8.52;7.72;;;20.70;61.80;;;;;;6061996;28;94160;-69
2022/03/07 05:16:50;;;;;;;8.98;8.07;;;20.70;61.80;;;;;;6065097;28;95567;-67
2022/03/07 05:19:52;;;;;;;8.40;7.60;;;20.70;61.80;;;;;;6051766;28;94137;-68
2022/03/07 05:22:54;;;;;;;8.43;7.63;;;20.80;61.80;;;;;;6041541;28;94403;-68
2022/03/07 05:25:58;;;;;;;8.48;7.68;;;20.70;61.70;;;;;;6054412;28;92634;-69
2022/03/07 05:29:00;;;;;;;8.43;7.63;;;20.70;61.70;;;;;;6061837;28;94149;-68
2022/03/07 05:32:02;;;;;;;8.27;7.47;;;20.80;61.80;;;;;;6047683;28;93990;-69
2022/03/07 05:35:06;;;;;;;7.80;7.10;;;20.70;61.70;;;;;;6060784;28;94124;-68
2022/03/07 05:38:09;;;;;;;8.15;7.35;;;20.80;61.70;;;;;;6059153;28;93800;-68
2022/03/07 05:41:12;;;;;;;7.63;6.93;;;20.80;61.70;;;;;;6049397;28;94299;-68
2022/03/07 05:44:15;;;;;;;8.23;7.43;;;20.80;61.80;;;;;;6038118;28;94135;-68
2022/03/07 05:47:17;;;;;;;7.85;7.15;;;20.80;61.70;;;;;;6037115;28;94919;-68
2022/03/07 05:53:38;;;;;;;7.82;7.10;;;20.80;61.60;;;;;;6038505;28;92373;-68
2022/03/07 05:56:42;;;;;;;8.25;7.45;;;20.90;61.70;;;;;;6035931;28;94511;-68
2022/03/07 05:59:44;;;;;;;8.05;7.25;;;20.80;61.60;;;;;;6052288;28;93832;-68
2022/03/07 06:02:46;;;;;;;7.82;7.13;;;20.80;61.60;;;;;;6037618;28;94149;-68
2022/03/07 06:05:48;;;;;;;7.68;6.97;;;20.90;61.70;;;;;;6039872;28;94281;-69
2022/03/07 06:08:51;;;;;;;7.65;6.95;;;20.80;61.70;;;;;;6047573;28;92326;-68
2022/03/07 06:11:54;;;;;;;7.55;6.85;;;20.80;61.60;;;;;;6036298;28;94511;-68
2022/03/07 06:14:56;;;;;;;7.20;6.60;;;20.90;61.70;;;;;;6062033;28;93946;-67
2022/03/07 06:17:59;;;;;;;7.53;6.82;;;20.80;61.60;;;;;;6047583;28;94017;-68
2022/03/07 06:21:01;;;;;;;7.47;6.70;;;20.90;61.70;;;;;;6060482;28;94092;-68
2022/03/07 06:24:03;;;;;;;7.18;6.53;;;20.90;61.70;;;;;;6061636;28;94181;-68
2022/03/07 06:27:07;;;;;;;7.57;6.88;;;20.80;61.70;;;;;;6047013;28;94030;-68
2022/03/07 06:30:09;;;;;;;7.38;6.68;;;20.90;61.70;;;;;;6043093;28;94233;-68
2022/03/07 06:33:11;;;;;;;6.90;6.30;;;20.90;61.70;;;;;;6052373;28;92867;-68
2022/03/07 06:36:13;;;;;;;7.03;6.32;;;20.90;61.70;;;;;;6063098;28;94283;-68
2022/03/07 06:39:15;;;;;;;6.85;6.25;;;20.90;61.70;;;;;;6055769;28;93687;-69
2022/03/07 06:42:19;;;;;;;7.03;6.40;;;20.90;61.70;;;;;;6046342;28;93389;-68
2022/03/07 06:45:21;;;;;;;8.00;7.07;;;20.80;61.60;;;;;;6053712;28;94221;-68
2022/03/07 06:48:23;;;;;;;7.13;6.45;;;20.90;61.70;;;;;;6048216;28;95443;-68
2022/03/07 06:51:25;;;;;;;7.10;6.43;;;20.90;61.70;;;;;;6051836;28;94489;-68
2022/03/07 06:54:27;;;;;;;7.22;6.53;;;20.90;61.70;;;;;;6044225;28;94156;-68
2022/03/07 06:57:30;;;;;;;7.38;6.68;;;20.90;61.70;;;;;;6037936;28;94079;-68
2022/03/07 07:00:33;;;;;;;6.75;6.15;;;20.90;61.70;;;;;;6047257;28;94096;-68
2022/03/07 07:03:36;;;;;;;7.32;6.63;;;20.80;61.70;;;;;;6046020;28;94063;-68
2022/03/07 07:06:38;;;;;;;6.90;6.30;;;20.90;61.70;;;;;;6046692;28;94222;-68
2022/03/07 07:09:41;;;;;;;7.07;6.47;;;20.80;61.70;;;;;;6058693;28;93468;-68
2022/03/07 07:12:44;;;;;;;6.50;5.90;;;20.80;61.70;;;;;;6046400;28;94129;-68
2022/03/07 07:15:54;;;;;;;6.60;6.00;;;20.80;61.70;;;;;;6055539;28;94110;-68
2022/03/07 07:18:56;;;;;;;6.80;6.20;;;20.80;61.70;;;;;;6034617;28;95053;-68
2022/03/07 07:21:58;;;;;;;6.90;6.30;;;20.80;61.80;;;;;;6052633;28;94246;-68
2022/03/07 07:25:00;;;;;;;7.07;6.40;;;20.80;61.80;;;;;;6046815;28;92952;-68
2022/03/07 07:28:04;;;;;;;6.00;5.50;;;20.80;61.70;;;;;;6059001;28;94218;-68
2022/03/07 07:31:06;;;;;;;6.50;5.90;;;20.80;61.80;;;;;;6048436;28;94135;-68
2022/03/07 07:34:08;;;;;;;6.78;6.18;;;20.80;61.80;;;;;;6059129;28;94198;-68
2022/03/07 07:37:10;;;;;;;6.60;6.00;;;20.80;61.90;;;;;;6061296;28;94176;-68
2022/03/07 07:40:13;;;;;;;6.57;5.97;;;20.80;61.90;;;;;;6036783;28;93747;-69
2022/03/07 07:43:16;;;;;;;6.90;6.20;;;20.80;61.80;;;;;;6036613;28;94135;-68
2022/03/07 07:46:20;;;;;;;6.43;5.80;;;20.80;61.80;;;;;;6035772;28;94077;-68
2022/03/07 07:49:24;;;;;;;6.55;5.90;;;20.80;61.70;;;;;;6035295;28;95052;-68
2022/03/07 07:52:26;;;;;;;6.82;6.15;;;20.80;61.70;;;;;;6047224;28;94088;-68
2022/03/07 07:55:28;;;;;;;6.35;5.75;;;20.90;61.80;;;;;;6034838;28;94088;-67
2022/03/07 07:58:32;;;;;;;6.20;5.60;;;20.90;61.70;;;;;;6055617;28;94175;-68
2022/03/07 08:01:34;;;;;;;6.07;5.57;;;20.90;61.70;;;;;;6041417;28;94567;-68
2022/03/07 08:04:36;;;;;;;6.20;5.60;;;20.90;61.70;;;;;;6047280;28;94258;-68
2022/03/07 08:07:41;;;;;;;6.20;5.60;;;20.90;61.70;;;;;;6051184;28;94135;-68
2022/03/07 08:10:43;;;;;;;6.35;5.75;;;20.90;61.70;;;;;;6043821;28;93554;-68
2022/03/07 08:13:46;;;;;;;6.20;5.60;;;20.90;61.70;;;;;;6049886;28;94202;-68
2022/03/07 08:16:48;;;;;;;6.20;5.60;;;20.90;61.80;;;;;;6055211;28;93349;-67
2022/03/07 08:19:50;;;;;;;6.25;5.65;;;20.90;61.70;;;;;;6047497;28;95216;-69
2022/03/07 08:22:52;;;;;;;6.32;5.55;;;20.90;61.80;;;;;;6048092;28;94054;-69
2022/03/07 08:25:55;;;;;;;6.30;5.70;;;20.90;61.80;;;;;;6044671;28;94217;-69
2022/03/07 08:28:58;;;;;;;6.38;5.78;;;21.00;61.80;;;;;;6044930;28;94526;-67
2022/03/07 08:32:00;;;;;;;6.47;5.88;;;21.00;61.80;;;;;;6058503;28;94041;-68
2022/03/07 08:35:03;;;;;;;5.97;5.38;;;20.90;61.70;;;;;;6056994;28;94112;-68
2022/03/07 08:38:05;;;;;;;5.70;5.20;;;21.00;61.70;;;;;;6048162;28;93415;-68
2022/03/07 08:41:08;;;;;;;6.00;5.40;;;21.00;61.70;;;;;;6047211;28;93305;-68
2022/03/07 08:44:11;;;;;;;5.82;5.22;;;21.00;61.60;;;;;;6045550;28;94366;-68
2022/03/07 08:47:14;;;;;;;5.57;5.07;;;21.00;61.70;;;;;;6038874;28;92868;-68
2022/03/07 08:50:18;;;;;;;6.07;5.53;;;21.00;61.70;;;;;;6046500;28;95094;-68
2022/03/07 08:53:20;;;;;;;5.75;5.15;;;21.00;61.70;;;;;;6053059;28;94308;-68
2022/03/07 08:56:22;;;;;;;5.95;5.38;;;21.00;61.70;;;;;;6044796;28;94232;-68
2022/03/07 08:59:27;;;;;;;5.97;5.43;;;21.00;61.70;;;;;;6055103;28;94088;-68
2022/03/07 09:02:29;;;;;;;5.82;5.30;;;21.00;61.70;;;;;;6051722;28;94110;-68
2022/03/07 09:05:31;;;;;;;5.80;5.30;;;21.00;61.60;;;;;;6061293;28;94100;-69
2022/03/07 09:08:34;;;;;;;5.05;4.65;;;21.00;61.60;;;;;;6046198;28;94261;-68
2022/03/07 09:11:36;;;;;;;5.47;4.97;;;21.00;61.60;;;;;;6038207;28;93655;-68
2022/03/07 09:14:39;;;;;;;5.57;5.07;;;21.00;61.70;;;;;;6052194;28;94212;-68
2022/03/07 09:17:42;;;;;;;5.80;5.30;;;21.00;61.70;;;;;;6057729;28;94323;-68
2022/03/07 09:20:44;;;;;;;5.63;5.10;;;21.00;61.70;;;;;;6062268;28;93630;-69
2022/03/07 09:23:46;;;;;;;5.50;5.00;;;21.00;62.10;;;;;;6048667;28;92989;-68
2022/03/07 09:26:48;;;;;;;5.60;5.10;;;21.00;61.70;;;;;;6046003;28;94192;-68
2022/03/07 09:29:52;;;;;;;5.38;4.88;;;21.00;61.60;;;;;;6052140;28;94398;-68
2022/03/07 09:32:56;;;;;;;5.40;4.90;;;21.00;61.60;;;;;;6061514;28;92900;-68
2022/03/07 09:35:58;;;;;;;5.38;4.88;;;21.00;61.50;;;;;;6062621;28;94160;-68
2022/03/07 09:39:00;;;;;;;5.30;4.80;;;21.00;61.50;;;;;;6042395;28;93020;-68
2022/03/07 09:42:02;;;;;;;4.93;4.47;;;21.00;61.50;;;;;;6044717;28;93739;-68
2022/03/07 09:45:09;;;;;;;5.32;4.82;;;21.00;61.60;;;;;;6056342;28;94385;-68
2022/03/07 09:48:12;;;;;;;4.93;4.53;;;21.10;61.70;;;;;;6041345;28;94264;-68
2022/03/07 09:51:15;;;;;;;5.40;4.90;;;21.10;61.60;;;;;;6048542;28;95086;-68
2022/03/07 09:54:17;;;;;;;4.90;4.50;;;21.00;61.60;;;;;;6058652;28;94067;-68
2022/03/07 09:57:19;;;;;;;5.30;4.80;;;21.00;61.50;;;;;;6037734;28;94565;-68
2022/03/07 10:00:23;;;;;;;5.53;5.03;;;21.00;61.40;;;;;;6044442;28;94052;-68
2022/03/07 10:03:25;;;;;;;5.32;4.82;;;21.00;61.40;;;;;;6060787;28;92102;-67
2022/03/07 10:06:29;;;;;;;4.85;4.45;;;21.10;61.40;;;;;;6048894;28;94328;-68
2022/03/07 10:09:31;;;;;;;5.25;4.75;;;21.00;61.40;;;;;;6058916;28;93500;-68
2022/03/07 10:12:33;;;;;;;5.10;4.60;;;21.10;61.50;;;;;;6061531;28;93187;-68
2022/03/07 10:15:38;;;;;;;4.95;4.53;;;21.10;61.50;;;;;;6041764;28;94155;-68
2022/03/07 10:18:49;;;;;;;5.18;4.68;;;21.10;61.50;;;;;;6037097;28;94173;-68
2022/03/07 10:21:53;;;;;;;5.38;4.88;;;21.10;61.50;;;;;;6040793;28;95145;-68
2022/03/07 10:24:59;;;;;;;5.40;4.90;;;21.10;61.50;;;;;;6045268;28;94110;-68
2022/03/07 10:28:03;;;;;;;5.45;4.95;;;21.10;61.60;;;;;;6050554;28;94475;-67
2022/03/07 10:31:17;;;;;;;4.80;4.40;;;21.10;61.40;;;;;;6047300;28;94036;-68
2022/03/07 10:34:20;;;;;;;4.80;4.40;;;21.10;61.40;;;;;;6059251;28;94072;-68
2022/03/07 10:37:32;;;;;;;4.90;4.50;;;21.10;61.40;;;;;;6065100;28;94087;-68
2022/03/07 10:40:36;;;;;;;4.50;4.10;;;21.20;61.50;;;;;;6036629;28;94077;-68
2022/03/07 10:43:47;;;;;;;5.20;4.70;;;21.10;61.50;;;;;;6056751;28;93514;-68
2022/03/07 10:46:51;;;;;;;4.80;4.40;;;21.10;61.50;;;;;;6046439;28;94229;-68
2022/03/07 10:49:54;;;;;;;4.80;4.40;;;21.10;61.40;;;;;;6054875;28;93871;-68
2022/03/07 10:53:00;;;;;;;4.85;4.45;;;21.10;61.40;;;;;;6051428;28;95075;-68
2022/03/07 10:56:02;;;;;;;4.80;4.40;;;21.10;61.50;;;;;;6059825;28;94173;-68
2022/03/07 10:59:11;;;;;;;4.57;4.18;;;21.20;61.60;;;;;;6059110;28;94118;-68
2022/03/07 11:02:16;;;;;;;4.57;4.18;;;21.20;61.60;;;;;;6060340;28;94314;-68
2022/03/07 11:05:19;;;;;;;4.70;4.30;;;21.10;61.60;;;;;;6048547;28;94060;-68
2022/03/07 11:08:21;;;;;;;4.85;4.45;;;21.10;61.60;;;;;;6058254;28;94089;-68
2022/03/07 11:11:23;;;;;;;5.40;4.90;;;21.10;61.60;;;;;;6046087;28;94179;-68
2022/03/07 11:14:27;;;;;;;4.70;4.30;;;21.10;61.50;;;;;;6057446;28;93427;-68
2022/03/07 11:17:32;;;;;;;4.40;4.00;;;21.10;61.60;;;;;;6047098;28;94169;-68
2022/03/07 11:20:35;;;;;;;4.60;4.20;;;21.20;61.60;;;;;;6060181;28;94086;-68
2022/03/07 11:23:38;;;;;;;4.43;4.03;;;21.20;61.60;;;;;;6045464;28;95084;-68
2022/03/07 11:26:42;;;;;;;4.47;4.07;;;21.20;61.50;;;;;;6061013;28;92638;-67
2022/03/07 11:29:44;;;;;;;4.53;4.13;;;21.20;61.50;;;;;;6043959;28;92986;-68
2022/03/07 11:32:51;;;;;;;4.80;4.40;;;21.20;61.50;;;;;;6049404;28;94175;-68
2022/03/07 11:35:54;;;;;;;4.65;4.25;;;21.20;61.60;;;;;;6058957;28;94109;-68
2022/03/07 11:38:58;;;;;;;4.53;4.13;;;21.20;61.60;;;;;;6062592;28;94462;-68
2022/03/07 11:42:19;;;;;;;4.68;4.28;;;21.20;61.60;;;;;;6060022;28;94645;-68
2022/03/07 11:45:23;;;;;;;4.57;4.18;;;21.20;61.60;;;;;;6040793;28;93404;-68
2022/03/07 11:48:32;;;;;;;4.50;4.10;;;21.20;61.60;;;;;;6039392;28;94434;-68
2022/03/07 11:51:36;;;;;;;4.25;3.88;;;21.20;61.60;;;;;;6056897;28;92994;-68
2022/03/07 11:54:52;;;;;;;4.45;4.05;;;21.20;61.60;;;;;;6045568;28;94998;-68
2022/03/07 11:58:01;;;;;;;4.43;4.03;;;21.20;61.70;;;;;;6057693;28;94042;-68
2022/03/07 12:01:05;;;;;;;4.30;3.90;;;21.20;61.70;;;;;;6048698;28;94073;-68
2022/03/07 12:04:11;;;;;;;4.35;3.95;;;21.20;62.70;;;;;;6046966;28;94174;-68
2022/03/07 12:07:13;;;;;;;4.50;4.10;;;21.20;61.70;;;;;;6057376;28;94218;-68
2022/03/07 12:10:16;;;;;;;4.50;4.10;;;21.20;61.80;;;;;;6035676;28;94262;-68
2022/03/07 12:13:18;;;;;;;4.05;3.75;;;21.20;61.70;;;;;;6044513;28;94211;-68
2022/03/07 12:16:27;;;;;;;4.43;4.03;;;21.20;61.70;;;;;;6045710;28;93818;-68
2022/03/07 12:19:30;;;;;;;4.28;3.88;;;21.30;61.70;;;;;;6036046;28;94119;-68
2022/03/07 12:22:34;;;;;;;4.00;3.70;;;21.20;61.60;;;;;;6057364;28;94146;-68
2022/03/07 12:25:36;;;;;;;4.00;3.70;;;21.30;61.80;;;;;;6037905;28;95115;-68
2022/03/07 12:28:43;;;;;;;4.40;4.00;;;21.30;61.70;;;;;;6039861;28;94202;-68
2022/03/07 12:31:50;;;;;;;4.50;4.10;;;21.30;61.70;;;;;;6041042;28;94569;-68
2022/03/07 12:34:54;;;;;;;4.55;4.15;;;21.30;61.70;;;;;;6047503;28;94136;-68
2022/03/07 12:37:57;;;;;;;4.70;4.30;;;21.30;61.70;;;;;;6060918;28;92905;-68
2022/03/07 12:41:00;;;;;;;4.20;3.80;;;21.30;61.70;;;;;;6051479;28;94152;-68
2022/03/07 12:44:24;;;;;;;4.00;3.70;;;21.30;61.80;;;;;;6062340;28;94067;-68
2022/03/07 12:47:27;;;;;;;3.97;3.65;;;21.30;61.80;;;;;;6049025;28;92007;-68
2022/03/07 12:50:32;;;;;;;4.15;3.78;;;21.30;61.90;;;;;;6062289;28;94149;-68
2022/03/07 12:53:36;;;;;;;4.15;3.75;;;21.30;61.80;;;;;;6041764;28;93358;-68
2022/03/07 12:56:39;;;;;;;4.18;3.88;;;21.30;61.80;;;;;;6045012;28;95277;-68
2022/03/07 12:59:41;;;;;;;4.32;4.00;;;21.30;61.80;;;;;;6060768;28;94097;-68
2022/03/07 13:02:45;;;;;;;4.10;3.80;;;21.30;61.90;;;;;;6061551;28;94181;-68
2022/03/07 13:06:00;;;;;;;4.32;3.92;;;21.30;61.90;;;;;;6060025;28;94285;-68
2022/03/07 13:09:03;;;;;;;4.10;3.80;;;21.30;61.90;;;;;;6059497;28;94426;-68
2022/03/07 13:12:09;;;;;;;4.00;3.60;;;21.30;61.90;;;;;;6049177;28;94184;-68
2022/03/07 13:15:11;;;;;;;3.95;3.65;;;21.30;61.80;;;;;;6061349;28;93953;-68
2022/03/07 13:18:13;;;;;;;4.40;4.00;;;21.30;61.80;;;;;;6061579;28;93311;-68
2022/03/07 13:21:17;;;;;;;3.92;3.63;;;21.30;61.70;;;;;;6060171;28;94145;-68
2022/03/07 13:24:20;;;;;;;4.20;3.80;;;21.30;61.60;;;;;;6050528;28;94099;-68
2022/03/07 13:27:23;;;;;;;3.92;3.63;;;21.30;61.60;;;;;;6058741;28;95086;-68
2022/03/07 13:30:25;;;;;;;3.97;3.67;;;21.40;61.80;;;;;;6049793;28;94442;-68
2022/03/07 13:33:34;;;;;;;4.00;3.70;;;21.40;61.80;;;;;;6047684;28;94557;-68
2022/03/07 13:36:42;;;;;;;4.00;3.70;;;21.30;61.70;;;;;;6070451;28;94182;-68
2022/03/07 13:39:57;;;;;;;4.30;3.90;;;21.30;61.70;;;;;;6037725;28;94105;-69
2022/03/07 13:43:00;;;;;;;4.28;3.97;;;21.30;61.80;;;;;;6040573;28;94141;-68
2022/03/07 13:46:03;;;;;;;4.07;3.78;;;21.30;61.70;;;;;;6037262;28;94116;-68
2022/03/07 13:49:05;;;;;;;3.72;3.42;;;21.30;61.70;;;;;;6059691;28;93386;-68
2022/03/07 13:52:17;;;;;;;3.90;3.60;;;21.30;61.80;;;;;;6053263;28;93046;-68
2022/03/07 13:55:22;;;;;;;3.78;3.47;;;21.30;61.70;;;;;;6056485;28;93366;-68
2022/03/07 13:58:26;;;;;;;3.88;3.58;;;21.30;61.70;;;;;;6048192;28;95794;-68
2022/03/07 14:01:30;;;;;;;3.65;3.35;;;21.30;62.60;;;;;;6051023;28;94115;-68
2022/03/07 14:04:32;;;;;;;4.20;3.80;;;21.30;61.70;;;;;;6041043;28;94086;-68
2022/03/07 14:07:36;;;;;;;3.78;3.47;;;21.30;61.70;;;;;;6043837;28;94124;-68
2022/03/07 14:10:38;;;;;;;4.18;3.78;;;21.30;61.70;;;;;;6035893;28;92946;-68
2022/03/07 14:13:42;;;;;;;4.03;3.63;;;21.40;61.80;;;;;;6052263;28;94072;-68
2022/03/07 14:16:44;;;;;;;3.70;3.40;;;21.30;61.70;;;;;;6059963;28;94102;-68
2022/03/07 14:19:46;;;;;;;3.97;3.67;;;21.40;61.70;;;;;;6060382;28;93569;-68
2022/03/07 14:22:50;;;;;;;4.00;3.70;;;21.40;61.70;;;;;;6061502;28;93996;-68
2022/03/07 14:25:52;;;;;;;3.78;3.47;;;21.40;61.70;;;;;;6061117;28;92862;-69
2022/03/07 14:28:56;;;;;;;4.05;3.72;;;21.40;61.70;;;;;;6058916;28;95487;-68
2022/03/07 14:32:00;;;;;;;3.80;3.50;;;21.40;61.70;;;;;;6061204;28;94226;-69
2022/03/07 14:35:02;;;;;;;3.90;3.60;;;21.40;61.80;;;;;;6054950;28;94138;-68
2022/03/07 14:38:06;;;;;;;3.80;3.50;;;21.40;61.70;;;;;;6047871;28;95592;-68
2022/03/07 14:41:08;;;;;;;3.97;3.65;;;21.40;61.70;;;;;;6048623;28;95651;-68
2022/03/07 14:44:10;;;;;;;3.67;3.38;;;21.40;61.60;;;;;;6059482;28;94115;-68
2022/03/07 14:47:12;;;;;;;3.97;3.67;;;21.40;61.60;;;;;;6048479;28;94120;-69
2022/03/07 14:50:17;;;;;;;3.78;3.47;;;21.40;61.60;;;;;;6061135;28;93480;-68
2022/03/07 14:56:39;;;;;;;3.83;3.53;;;21.40;61.60;;;;;;6053112;28;92330;-68
2022/03/07 14:59:42;;;;;;;3.70;3.40;;;21.40;61.50;;;;;;6041409;28;95289;-68
2022/03/07 15:02:44;;;;;;;3.83;3.53;;;21.40;61.50;;;;;;6055702;28;94263;-68
2022/03/07 15:05:46;;;;;;;3.63;3.33;;;21.30;61.40;;;;;;6034917;28;94219;-68
2022/03/07 15:08:49;;;;;;;3.70;3.40;;;21.30;61.40;;;;;;6045123;28;94287;-68
2022/03/07 15:11:51;;;;;;;3.75;3.45;;;21.40;61.50;;;;;;6059680;28;93491;-69
2022/03/07 15:14:53;;;;;;;3.72;3.42;;;21.40;61.50;;;;;;6058380;28;94160;-69
2022/03/07 15:17:55;;;;;;;3.70;3.40;;;21.40;61.50;;;;;;6058258;28;94171;-68
2022/03/07 15:20:58;;;;;;;3.45;3.15;;;21.40;61.50;;;;;;6059548;28;93412;-69
2022/03/07 15:24:02;;;;;;;3.70;3.40;;;21.40;61.50;;;;;;6051086;28;94054;-68
2022/03/07 15:27:04;;;;;;;3.70;3.40;;;21.40;61.50;;;;;;6054659;28;94418;-68
2022/03/07 15:30:08;;;;;;;3.70;3.40;;;21.40;61.40;;;;;;6053155;28;95052;-68
2022/03/07 15:33:10;;;;;;;3.60;3.30;;;21.40;61.50;;;;;;6036730;28;94118;-69
2022/03/07 15:36:12;;;;;;;3.50;3.20;;;21.40;61.40;;;;;;6060974;28;94201;-69
2022/03/07 15:39:17;;;;;;;3.50;3.20;;;21.40;61.40;;;;;;6048215;28;93048;-68
2022/03/07 15:42:20;;;;;;;3.50;3.20;;;21.40;61.30;;;;;;6040288;28;92861;-68
2022/03/07 15:45:22;;;;;;;3.78;3.47;;;21.40;61.30;;;;;;6052866;28;94209;-68
2022/03/07 15:48:24;;;;;;;3.65;3.35;;;21.40;61.30;;;;;;6059415;28;92970;-69
2022/03/07 15:51:26;;;;;;;3.63;3.33;;;21.40;61.30;;;;;;6059787;28;93391;-68
2022/03/07 15:54:30;;;;;;;3.55;3.25;;;21.40;61.30;;;;;;6042486;28;94536;-68
2022/03/07 15:57:32;;;;;;;3.53;3.22;;;21.40;61.20;;;;;;6048624;28;93042;-68